createdAt,value
2023-05-02T00:00:54.811Z,5.50
2023-05-02T00:03:21.875Z,5.38
2023-05-02T00:05:48.734Z,5.57
2023-05-02T00:08:16.451Z,4.88
2023-05-02T00:10:43.410Z,5.05
2023-05-02T00:13:10.220Z,5.03
2023-05-02T00:15:37.023Z,5.65
2023-05-02T00:18:04.345Z,5.03
2023-05-02T00:20:31.224Z,5.05
2023-05-02T00:22:58.011Z,5.28
2023-05-02T00:25:24.894Z,5.53
2023-05-02T00:27:51.814Z,5.53
2023-05-02T00:30:18.791Z,5.13
2023-05-02T00:32:45.842Z,5.63
2023-05-02T00:35:12.823Z,5.28
2023-05-02T00:37:39.697Z,5.20
2023-05-02T00:40:08.295Z,6.03
2023-05-02T00:42:36.391Z,6.38
2023-05-02T00:45:06.520Z,5.25
2023-05-02T00:47:33.879Z,5.30
2023-05-02T00:50:01.385Z,5.40
2023-05-02T00:52:29.137Z,5.78
2023-05-02T00:54:55.943Z,5.80
2023-05-02T00:57:23.191Z,5.88
2023-05-02T00:59:50.357Z,6.15
2023-05-02T01:02:38.929Z,5.57
2023-05-02T01:05:17.489Z,6.22
2023-05-02T01:07:59.846Z,5.57
2023-05-02T01:10:50.106Z,5.53
2023-05-02T01:13:19.581Z,5.45
2023-05-02T01:15:49.098Z,5.68
2023-05-02T01:18:18.622Z,5.47
2023-05-02T01:20:48.359Z,5.45
2023-05-02T01:23:29.221Z,6.18
2023-05-02T01:25:58.886Z,6.25
2023-05-02T01:28:56.892Z,5.78
2023-05-02T01:31:26.287Z,5.95
2023-05-02T01:33:55.888Z,5.47
2023-05-02T01:36:26.877Z,6.40
2023-05-02T01:38:56.649Z,5.78
2023-05-02T01:41:27.556Z,5.45
2023-05-02T01:43:57.305Z,5.90
2023-05-02T01:46:28.441Z,5.43
2023-05-02T01:48:58.992Z,5.97
2023-05-02T01:51:31.828Z,5.80
2023-05-02T01:56:34.133Z,5.63
2023-05-02T01:59:02.438Z,5.18
2023-05-02T02:01:31.100Z,5.85
2023-05-02T02:04:00.183Z,5.13
2023-05-02T02:06:27.791Z,5.72
2023-05-02T02:08:55.223Z,6.25
2023-05-02T02:11:27.603Z,5.75
2023-05-02T02:14:02.021Z,5.93
2023-05-02T02:16:32.695Z,5.63
2023-05-02T02:19:06.016Z,5.47
2023-05-02T02:21:35.904Z,5.72
2023-05-02T02:24:05.466Z,5.20
2023-05-02T02:26:32.394Z,5.40
2023-05-02T02:29:00.612Z,5.35
2023-05-02T02:31:32.163Z,5.53
2023-05-02T02:33:59.550Z,5.65
2023-05-02T02:36:34.722Z,5.10
2023-05-02T02:39:26.284Z,5.03
2023-05-02T02:41:55.611Z,4.72
2023-05-02T02:45:21.213Z,4.93
2023-05-02T02:48:29.639Z,5.25
2023-05-02T02:51:02.199Z,4.88
2023-05-02T02:54:19.066Z,4.75
2023-05-02T02:57:13.231Z,4.65
2023-05-02T02:59:47.219Z,5.30
2023-05-02T03:02:18.842Z,5.25
2023-05-02T03:04:47.578Z,5.22
2023-05-02T03:07:14.322Z,5.65
2023-05-02T03:09:46.993Z,5.40
2023-05-02T03:12:19.459Z,4.88
2023-05-02T03:14:48.270Z,5.30
2023-05-02T03:17:15.285Z,4.95
2023-05-02T03:19:42.508Z,5.20
2023-05-02T03:22:09.506Z,5.38
2023-05-02T03:24:36.717Z,5.35
2023-05-02T03:27:04.770Z,5.07
2023-05-02T03:29:38.000Z,5.35
2023-05-02T03:32:05.671Z,5.32
2023-05-02T03:34:33.119Z,5.55
2023-05-02T03:37:00.672Z,5.40
2023-05-02T03:39:28.214Z,6.10
2023-05-02T03:41:55.718Z,5.80
2023-05-02T03:44:24.137Z,5.75
2023-05-02T03:46:51.007Z,6.28
2023-05-02T03:49:19.668Z,6.47
2023-05-02T03:51:48.131Z,6.35
2023-05-02T03:54:19.861Z,6.20
2023-05-02T03:56:47.916Z,7.72
2023-05-02T03:59:20.999Z,6.95
2023-05-02T04:01:51.304Z,7.55
2023-05-02T04:04:21.376Z,7.10
2023-05-02T04:06:51.977Z,7.40
2023-05-02T04:09:23.560Z,7.35
2023-05-02T04:11:55.043Z,6.70
2023-05-02T04:14:22.735Z,7.22
2023-05-02T04:16:52.527Z,6.55
2023-05-02T04:19:27.328Z,6.28
2023-05-02T04:21:54.110Z,6.80
2023-05-02T04:24:21.160Z,7.35
2023-05-02T04:26:49.139Z,8.35
2023-05-02T04:29:16.026Z,8.65
2023-05-02T04:31:43.629Z,9.05
2023-05-02T04:34:11.862Z,9.50
2023-05-02T04:36:48.001Z,8.27
2023-05-02T04:39:21.936Z,7.13
2023-05-02T04:41:58.128Z,7.38
2023-05-02T04:44:27.063Z,6.93
2023-05-02T04:46:55.122Z,7.40
2023-05-02T04:49:22.016Z,7.45
2023-05-02T04:51:48.779Z,7.30
2023-05-02T04:54:15.807Z,6.93
2023-05-02T04:56:43.766Z,7.13
2023-05-02T04:59:12.583Z,6.78
2023-05-02T05:01:39.473Z,7.82
2023-05-02T05:04:08.265Z,7.40
2023-05-02T05:06:35.066Z,7.88
2023-05-02T05:09:03.468Z,8.07
2023-05-02T05:11:31.062Z,7.82
2023-05-02T05:13:58.440Z,7.57
2023-05-02T05:16:26.738Z,7.60
2023-05-02T05:18:54.105Z,8.15
2023-05-02T05:21:21.042Z,8.00
2023-05-02T05:23:48.519Z,7.70
2023-05-02T05:26:22.219Z,7.60
2023-05-02T05:28:50.831Z,7.75
2023-05-02T05:31:19.420Z,7.13
2023-05-02T05:33:50.105Z,6.07
2023-05-02T05:36:17.304Z,5.53
2023-05-02T05:38:44.119Z,5.75
2023-05-02T05:41:11.863Z,5.82
2023-05-02T05:43:43.203Z,5.68
2023-05-02T05:46:10.361Z,6.40
2023-05-02T05:48:38.214Z,5.75
2023-05-02T05:51:06.306Z,5.95
2023-05-02T05:53:33.347Z,5.53
2023-05-02T05:56:13.033Z,5.63
2023-05-02T05:58:45.314Z,5.95
2023-05-02T06:01:13.914Z,5.95
2023-05-02T06:03:41.853Z,6.22
2023-05-02T06:06:08.669Z,5.88
2023-05-02T06:08:35.647Z,5.80
2023-05-02T06:11:08.177Z,5.88
2023-05-02T06:13:34.940Z,6.50
2023-05-02T06:16:03.439Z,6.13
2023-05-02T06:18:30.774Z,6.35
2023-05-02T06:20:59.042Z,6.65
2023-05-02T06:23:29.511Z,6.93
2023-05-02T06:26:02.403Z,6.05
2023-05-02T06:28:29.715Z,6.55
2023-05-02T06:31:01.246Z,6.72
2023-05-02T06:33:29.251Z,6.30
2023-05-02T06:35:56.969Z,6.55
2023-05-02T06:38:24.832Z,6.05
2023-05-02T06:40:52.248Z,6.53
2023-05-02T06:43:19.560Z,6.25
2023-05-02T06:45:46.245Z,5.88
2023-05-02T06:48:13.071Z,6.05
2023-05-02T06:50:39.784Z,6.85
2023-05-02T06:53:06.517Z,6.10
2023-05-02T06:55:33.202Z,6.05
2023-05-02T06:58:00.202Z,5.75
2023-05-02T07:00:27.438Z,5.55
2023-05-02T07:02:54.173Z,5.00
2023-05-02T07:05:21.048Z,5.28
2023-05-02T07:07:48.341Z,5.50
2023-05-02T07:10:15.015Z,5.18
2023-05-02T07:12:42.433Z,5.28
2023-05-02T07:15:09.296Z,5.22
2023-05-02T07:17:36.203Z,5.05
2023-05-02T07:20:03.923Z,4.90
2023-05-02T07:22:31.273Z,4.63
2023-05-02T07:24:59.620Z,5.05
2023-05-02T07:27:26.510Z,4.97
2023-05-02T07:29:54.332Z,4.75
2023-05-02T07:32:28.586Z,4.80
2023-05-02T07:34:57.086Z,4.60
2023-05-02T07:37:23.757Z,5.18
2023-05-02T07:39:50.385Z,5.05
2023-05-02T07:42:17.286Z,4.38
2023-05-02T07:44:44.315Z,4.50
2023-05-02T07:47:11.135Z,4.28
2023-05-02T07:49:38.619Z,4.38
2023-05-02T07:52:05.265Z,4.35
2023-05-02T07:54:32.037Z,4.22
2023-05-02T07:57:02.379Z,4.28
2023-05-02T07:59:31.265Z,4.07
2023-05-02T08:01:58.571Z,4.15
2023-05-02T08:04:25.951Z,4.90
2023-05-02T08:06:54.890Z,4.20
2023-05-02T08:09:21.724Z,4.40
2023-05-02T08:11:48.428Z,4.47
2023-05-02T08:14:16.414Z,4.05
2023-05-02T08:16:46.061Z,3.83
2023-05-02T08:19:13.673Z,3.85
2023-05-02T08:21:40.500Z,3.95
2023-05-02T08:24:08.143Z,4.30
2023-05-02T08:26:34.802Z,4.10
2023-05-02T08:29:03.510Z,3.30
2023-05-02T08:31:31.132Z,3.45
2023-05-02T08:33:58.255Z,3.60
2023-05-02T08:36:24.923Z,3.58
2023-05-02T08:38:51.568Z,3.20
2023-05-02T08:41:19.890Z,3.10
2023-05-02T08:43:46.922Z,3.38
2023-05-02T08:46:16.876Z,3.30
2023-05-02T08:48:48.306Z,3.15
2023-05-02T08:51:17.142Z,4.07
2023-05-02T08:53:44.544Z,3.22
2023-05-02T08:56:14.387Z,3.42
2023-05-02T08:58:41.887Z,3.03
2023-05-02T09:01:29.368Z,2.88
2023-05-02T09:03:59.384Z,2.90
2023-05-02T09:06:28.318Z,2.70
2023-05-02T09:08:55.476Z,2.70
2023-05-02T09:11:24.620Z,2.40
2023-05-02T09:13:52.977Z,2.17
2023-05-02T09:16:25.418Z,2.80
2023-05-02T09:21:25.424Z,2.35
2023-05-02T09:23:52.360Z,2.50
2023-05-02T09:26:28.808Z,2.40
2023-05-02T09:28:58.064Z,2.22
2023-05-02T09:31:55.518Z,2.78
2023-05-02T09:34:24.546Z,2.53
2023-05-02T09:36:56.287Z,2.80
2023-05-02T09:39:26.128Z,2.42
2023-05-02T09:41:54.214Z,2.15
2023-05-02T09:44:23.905Z,2.60
2023-05-02T09:46:53.735Z,2.55
2023-05-02T09:49:40.218Z,2.20
2023-05-02T09:52:18.078Z,2.40
2023-05-02T09:54:56.583Z,2.30
2023-05-02T09:57:41.534Z,2.00
2023-05-02T10:00:12.025Z,2.00
2023-05-02T10:02:41.573Z,1.92
2023-05-02T10:05:10.624Z,2.15
2023-05-02T10:07:38.491Z,2.30
2023-05-02T10:10:07.985Z,2.00
2023-05-02T10:12:41.308Z,2.00
2023-05-02T10:15:15.470Z,2.03
2023-05-02T10:17:50.956Z,2.10
2023-05-02T10:20:27.063Z,1.77
2023-05-02T10:23:01.041Z,1.98
2023-05-02T10:25:30.240Z,1.63
2023-05-02T10:28:00.647Z,1.63
2023-05-02T10:30:27.844Z,1.65
2023-05-02T10:32:55.834Z,1.80
2023-05-02T10:35:25.705Z,1.70
2023-05-02T10:37:53.617Z,1.70
2023-05-02T10:40:20.381Z,1.35
2023-05-02T10:42:51.450Z,1.45
2023-05-02T10:45:31.038Z,1.70
2023-05-02T10:48:13.661Z,1.48
2023-05-02T10:50:49.723Z,1.58
2023-05-02T10:53:32.394Z,1.70
2023-05-02T10:56:15.720Z,1.25
2023-05-02T10:58:45.024Z,1.60
2023-05-02T11:01:30.837Z,1.67
2023-05-02T11:04:02.394Z,1.80
2023-05-02T11:06:33.874Z,1.50
2023-05-02T11:09:13.793Z,1.80
2023-05-02T11:11:45.019Z,1.42
2023-05-02T11:14:14.042Z,1.35
2023-05-02T11:17:04.526Z,1.40
2023-05-02T11:19:56.978Z,1.20
2023-05-02T11:22:33.526Z,1.38
2023-05-02T11:25:00.411Z,1.20
2023-05-02T11:27:30.820Z,1.23
2023-05-02T11:30:02.388Z,1.40
2023-05-02T11:32:48.809Z,1.30
2023-05-02T11:35:21.214Z,1.20
2023-05-02T11:37:58.765Z,1.40
2023-05-02T11:40:27.545Z,1.20
2023-05-02T11:42:55.423Z,1.35
2023-05-02T11:45:24.189Z,1.30
2023-05-02T11:47:51.583Z,1.27
2023-05-02T11:50:18.585Z,1.30
2023-05-02T11:52:46.062Z,1.50
2023-05-02T11:55:15.137Z,1.23
2023-05-02T11:57:42.479Z,1.48
2023-05-02T12:00:11.369Z,1.50
2023-05-02T12:02:44.253Z,1.27
2023-05-02T12:05:13.050Z,1.50
2023-05-02T12:07:49.298Z,1.80
2023-05-02T12:10:16.272Z,1.23
2023-05-02T12:12:44.827Z,1.33
2023-05-02T12:15:12.852Z,1.30
2023-05-02T12:17:42.646Z,1.30
2023-05-02T12:20:11.618Z,1.30
2023-05-02T12:22:38.816Z,1.23
2023-05-02T12:25:06.362Z,1.25
2023-05-02T12:27:36.107Z,1.10
2023-05-02T12:30:03.389Z,1.27
2023-05-02T12:32:32.627Z,1.00
2023-05-02T12:35:00.484Z,1.08
2023-05-02T12:37:28.270Z,1.27
2023-05-02T12:39:56.802Z,1.30
2023-05-02T12:42:25.829Z,1.50
2023-05-02T12:44:53.233Z,1.20
2023-05-02T12:47:22.670Z,1.10
2023-05-02T12:49:50.868Z,1.23
2023-05-02T12:52:22.032Z,1.20
2023-05-02T12:54:49.028Z,1.10
2023-05-02T12:57:25.850Z,1.13
2023-05-02T12:59:54.496Z,1.00
2023-05-02T13:02:21.694Z,1.63
2023-05-02T13:04:48.732Z,1.48
2023-05-02T13:07:16.407Z,1.20
2023-05-02T13:09:43.086Z,1.23
2023-05-02T13:12:10.279Z,1.10
2023-05-02T13:14:36.959Z,1.15
2023-05-02T13:17:04.136Z,1.20
2023-05-02T13:19:31.753Z,1.10
2023-05-02T13:21:58.705Z,1.33
2023-05-02T13:24:25.848Z,1.25
2023-05-02T13:26:52.483Z,1.30
2023-05-02T13:29:19.241Z,1.10
2023-05-02T13:31:46.432Z,1.20
2023-05-02T13:34:13.106Z,1.23
2023-05-02T13:36:46.092Z,1.15
2023-05-02T13:39:13.947Z,1.25
2023-05-02T13:41:41.653Z,1.20
2023-05-02T13:44:09.556Z,1.10
2023-05-02T13:46:37.897Z,1.00
2023-05-02T13:49:04.899Z,0.80
2023-05-02T13:51:32.631Z,1.00
2023-05-02T13:53:59.938Z,1.00
2023-05-02T13:56:27.313Z,1.00
2023-05-02T13:58:53.980Z,0.70
2023-05-02T14:01:20.892Z,0.90
2023-05-02T14:03:47.699Z,1.10
2023-05-02T14:06:14.703Z,1.17
2023-05-02T14:08:42.282Z,0.77
2023-05-02T14:11:08.958Z,0.90
2023-05-02T14:13:35.926Z,0.63
2023-05-02T14:16:02.861Z,0.90
2023-05-02T14:18:29.743Z,0.68
2023-05-02T14:20:59.981Z,0.90
2023-05-02T14:23:30.179Z,0.93
2023-05-02T14:25:57.310Z,0.73
2023-05-02T14:28:24.255Z,0.80
2023-05-02T14:30:52.606Z,0.77
2023-05-02T14:33:19.238Z,0.52
2023-05-02T14:35:46.402Z,0.45
2023-05-02T14:38:13.749Z,0.63
2023-05-02T14:40:41.858Z,0.95
2023-05-02T14:43:09.598Z,0.60
2023-05-02T14:45:39.146Z,0.60
2023-05-02T14:48:08.112Z,0.43
2023-05-02T14:50:37.521Z,0.40
2023-05-02T14:53:04.216Z,0.60
2023-05-02T14:55:31.432Z,0.50
2023-05-02T14:57:58.975Z,0.40
2023-05-02T15:00:26.475Z,0.65
2023-05-02T15:02:53.656Z,0.50
2023-05-02T15:05:21.172Z,0.70
2023-05-02T15:07:47.970Z,0.32
2023-05-02T15:10:15.502Z,0.47
2023-05-02T15:12:43.241Z,0.50
2023-05-02T15:15:10.544Z,0.40
2023-05-02T15:17:37.901Z,0.57
2023-05-02T15:20:05.729Z,0.50
2023-05-02T15:22:32.467Z,0.50
2023-05-02T15:24:59.132Z,0.55
2023-05-02T15:27:26.034Z,0.50
2023-05-02T15:29:52.894Z,0.43
2023-05-02T15:32:19.764Z,0.90
2023-05-02T15:34:46.719Z,0.43
2023-05-02T15:37:13.404Z,0.45
2023-05-02T15:39:40.083Z,0.50
2023-05-02T15:42:06.859Z,0.40
2023-05-02T15:44:37.653Z,0.40
2023-05-02T15:47:05.240Z,0.50
2023-05-02T15:49:33.410Z,0.55
2023-05-02T15:52:01.842Z,0.50
2023-05-02T15:54:28.760Z,0.40
2023-05-02T15:56:55.893Z,0.50
2023-05-02T15:59:22.765Z,0.60
2023-05-02T16:01:49.496Z,0.50
2023-05-02T16:04:16.188Z,0.40
2023-05-02T16:06:42.938Z,0.50
2023-05-02T16:09:10.345Z,0.63
2023-05-02T16:11:37.145Z,0.50
2023-05-02T16:14:04.083Z,0.38
2023-05-02T16:16:31.052Z,0.50
2023-05-02T16:18:57.960Z,0.50
2023-05-02T16:21:24.604Z,0.40
2023-05-02T16:23:51.940Z,0.60
2023-05-02T16:26:18.666Z,0.63
2023-05-02T16:28:45.318Z,0.50
2023-05-02T16:31:14.297Z,0.70
2023-05-02T16:33:42.806Z,0.60
2023-05-02T16:36:09.905Z,0.60
2023-05-02T16:38:36.705Z,0.50
2023-05-02T16:41:05.590Z,0.60
2023-05-02T16:43:32.871Z,0.50
2023-05-02T16:46:04.426Z,0.50
2023-05-02T16:48:32.107Z,0.43
2023-05-02T16:51:01.099Z,0.68
2023-05-02T16:53:30.616Z,0.50
2023-05-02T16:55:59.353Z,0.45
2023-05-02T16:58:28.939Z,0.60
2023-05-02T17:00:57.108Z,0.55
2023-05-02T17:03:24.066Z,0.60
2023-05-02T17:05:51.650Z,0.50
2023-05-02T17:08:18.372Z,0.50
2023-05-02T17:10:49.853Z,0.60
2023-05-02T17:13:16.762Z,0.43
2023-05-02T17:15:44.233Z,0.50
2023-05-02T17:18:11.957Z,0.80
2023-05-02T17:20:39.970Z,0.80
2023-05-02T17:23:08.036Z,0.63
2023-05-02T17:25:35.781Z,0.60
2023-05-02T17:28:02.644Z,0.40
2023-05-02T17:30:30.538Z,0.52
2023-05-02T17:32:57.498Z,0.80
2023-05-02T17:35:24.412Z,0.65
2023-05-02T17:37:51.293Z,0.60
2023-05-02T17:40:18.763Z,0.50
2023-05-02T17:42:46.673Z,0.50
2023-05-02T17:45:14.083Z,0.63
2023-05-02T17:47:41.283Z,0.70
2023-05-02T17:50:08.820Z,0.80
2023-05-02T17:52:35.895Z,0.70
2023-05-02T17:55:03.046Z,0.70
2023-05-02T17:57:29.738Z,0.60
2023-05-02T17:59:59.645Z,0.60
2023-05-02T18:02:29.935Z,0.60
2023-05-02T18:04:57.975Z,0.60
2023-05-02T18:07:24.895Z,0.75
2023-05-02T18:09:51.904Z,0.52
2023-05-02T18:12:19.493Z,0.80
2023-05-02T18:14:46.271Z,0.57
2023-05-02T18:17:13.166Z,0.73
2023-05-02T18:19:39.919Z,0.80
2023-05-02T18:22:07.254Z,0.95
2023-05-02T18:24:34.049Z,0.60
2023-05-02T18:27:00.780Z,0.70
2023-05-02T18:29:27.676Z,0.70
2023-05-02T18:31:54.475Z,0.70
2023-05-02T18:34:21.218Z,0.88
2023-05-02T18:36:47.875Z,0.82
2023-05-02T18:39:14.650Z,0.68
2023-05-02T18:41:41.318Z,1.08
2023-05-02T18:44:10.147Z,0.70
2023-05-02T18:46:36.848Z,0.80
2023-05-02T18:49:03.604Z,0.70
2023-05-02T18:51:30.258Z,0.68
2023-05-02T18:53:56.899Z,0.73
2023-05-02T18:56:24.999Z,0.70
2023-05-02T18:58:56.333Z,0.70
2023-05-02T19:01:24.058Z,0.80
2023-05-02T19:03:52.827Z,0.85
2023-05-02T19:06:21.621Z,0.60
2023-05-02T19:08:51.404Z,0.70
2023-05-02T19:11:21.336Z,0.80
2023-05-02T19:13:51.396Z,0.70
2023-05-02T19:16:26.461Z,0.90
2023-05-02T19:18:58.564Z,0.77
2023-05-02T19:21:27.371Z,0.90
2023-05-02T19:23:59.934Z,0.73
2023-05-02T19:26:29.502Z,0.80
2023-05-02T19:29:00.440Z,0.90
2023-05-02T19:31:28.185Z,0.77
2023-05-02T19:33:55.623Z,1.00
2023-05-02T19:36:25.001Z,0.80
2023-05-02T19:38:53.939Z,0.80
2023-05-02T19:41:22.976Z,1.00
2023-05-02T19:43:51.238Z,0.80
2023-05-02T19:46:20.214Z,0.88
2023-05-02T19:48:47.824Z,0.90
2023-05-02T19:51:15.615Z,1.10
2023-05-02T19:53:42.586Z,0.85
2023-05-02T19:56:09.371Z,0.82
2023-05-02T19:58:36.119Z,0.90
2023-05-02T20:01:03.519Z,0.90
2023-05-02T20:03:31.336Z,0.82
2023-05-02T20:05:58.738Z,1.13
2023-05-02T20:08:28.968Z,0.98
2023-05-02T20:10:56.631Z,0.93
2023-05-02T20:13:23.319Z,0.80
2023-05-02T20:15:52.113Z,1.00
2023-05-02T20:18:20.436Z,1.05
2023-05-02T20:20:47.443Z,0.90
2023-05-02T20:23:15.376Z,0.80
2023-05-02T20:25:43.081Z,0.98
2023-05-02T20:28:10.623Z,1.10
2023-05-02T20:30:40.322Z,0.80
2023-05-02T20:33:15.500Z,0.80
2023-05-02T20:35:44.880Z,1.00
2023-05-02T20:38:12.077Z,1.00
2023-05-02T20:40:40.356Z,1.00
2023-05-02T20:43:07.442Z,1.00
2023-05-02T20:45:34.331Z,1.20
2023-05-02T20:48:01.165Z,0.95
2023-05-02T20:50:28.431Z,1.10
2023-05-02T20:52:55.316Z,1.10
2023-05-02T20:55:23.215Z,1.10
2023-05-02T20:57:53.772Z,0.93
2023-05-02T21:00:22.823Z,1.20
2023-05-02T21:02:49.981Z,1.35
2023-05-02T21:05:18.385Z,0.93
2023-05-02T21:07:46.240Z,1.20
2023-05-02T21:10:12.896Z,1.20
2023-05-02T21:12:39.830Z,1.10
2023-05-02T21:15:07.765Z,1.10
2023-05-02T21:17:34.803Z,1.00
2023-05-02T21:20:01.896Z,1.10
2023-05-02T21:22:28.718Z,0.90
2023-05-02T21:24:55.908Z,1.00
2023-05-02T21:27:23.042Z,1.30
2023-05-02T21:29:49.991Z,0.88
2023-05-02T21:32:16.856Z,1.15
2023-05-02T21:34:43.525Z,1.10
2023-05-02T21:37:10.235Z,1.10
2023-05-02T21:39:38.319Z,1.02
2023-05-02T21:42:05.144Z,0.93
2023-05-02T21:44:31.776Z,0.90
2023-05-02T21:46:58.481Z,1.20
2023-05-02T21:49:25.231Z,0.93
2023-05-02T21:51:51.876Z,0.95
2023-05-02T21:54:18.512Z,1.17
2023-05-02T21:56:45.257Z,1.10
2023-05-02T21:59:11.930Z,1.02
2023-05-02T22:01:38.596Z,0.90
2023-05-02T22:04:05.335Z,1.08
2023-05-02T22:06:32.795Z,1.30
2023-05-02T22:08:59.547Z,1.25
2023-05-02T22:11:28.510Z,1.20
2023-05-02T22:13:55.271Z,1.15
2023-05-02T22:16:22.035Z,1.10
2023-05-02T22:18:49.661Z,1.10
2023-05-02T22:21:16.408Z,1.40
2023-05-02T22:23:43.061Z,1.20
2023-05-02T22:26:09.704Z,1.38
2023-05-02T22:28:36.408Z,1.00
2023-05-02T22:31:03.319Z,1.27
2023-05-02T22:33:30.150Z,1.17
2023-05-02T22:35:57.027Z,1.23
2023-05-02T22:38:23.830Z,1.05
2023-05-02T22:40:50.581Z,1.10
2023-05-02T22:43:17.568Z,1.60
2023-05-02T22:45:44.255Z,1.23
2023-05-02T22:48:11.812Z,1.30
2023-05-02T22:50:38.743Z,1.17
2023-05-02T22:53:05.599Z,1.40
2023-05-02T22:55:32.239Z,1.20
2023-05-02T22:57:58.912Z,1.40
2023-05-02T23:00:25.558Z,1.42
2023-05-02T23:02:52.364Z,1.15
2023-05-02T23:05:19.517Z,1.25
2023-05-02T23:07:46.193Z,1.50
2023-05-02T23:10:12.880Z,1.30
2023-05-02T23:12:39.598Z,1.30
2023-05-02T23:15:07.062Z,1.45
2023-05-02T23:17:37.182Z,1.55
2023-05-02T23:20:05.323Z,1.23
2023-05-02T23:22:35.867Z,1.25
2023-05-02T23:25:03.018Z,1.30
2023-05-02T23:27:29.731Z,1.38
2023-05-02T23:29:56.385Z,1.20
2023-05-02T23:32:23.828Z,1.30
2023-05-02T23:34:50.625Z,1.50
2023-05-02T23:37:17.423Z,1.35
2023-05-02T23:39:44.075Z,1.38
2023-05-02T23:42:10.743Z,1.27
2023-05-02T23:44:37.415Z,1.20
2023-05-02T23:47:04.198Z,1.35
2023-05-02T23:49:30.883Z,1.20
2023-05-02T23:51:57.637Z,1.42
2023-05-02T23:54:24.594Z,1.50
2023-05-02T23:56:53.225Z,1.15
2023-05-02T23:59:19.820Z,1.50
